sensor_id;sensor_type;location;lat;lon;timestamp;P1;durP1;ratioP1;P2;durP2;ratioP2
15669;SDS011;18524;45.190;5.732;2023-12-28T00:01:23;35.87;;;24.33;;
15669;SDS011;18524;45.190;5.732;2023-12-28T00:06:13;33.23;;;24.17;;
15669;SDS011;18524;45.190;5.732;2023-12-28T00:11:03;56.87;;;27.90;;
15669;SDS011;18524;45.190;5.732;2023-12-28T00:15:54;43.53;;;25.53;;
15669;SDS011;18524;45.190;5.732;2023-12-28T00:20:44;37.30;;;23.63;;
15669;SDS011;18524;45.190;5.732;2023-12-28T00:25:35;30.93;;;21.33;;
15669;SDS011;18524;45.190;5.732;2023-12-28T00:30:25;56.07;;;26.87;;
15669;SDS011;18524;45.190;5.732;2023-12-28T00:35:15;48.23;;;25.03;;
15669;SDS011;18524;45.190;5.732;2023-12-28T00:40:06;50.03;;;26.17;;
15669;SDS011;18524;45.190;5.732;2023-12-28T00:44:57;33.27;;;22.77;;
15669;SDS011;18524;45.190;5.732;2023-12-28T00:49:47;33.63;;;22.83;;
15669;SDS011;18524;45.190;5.732;2023-12-28T00:54:37;33.10;;;24.40;;
15669;SDS011;18524;45.190;5.732;2023-12-28T00:59:28;31.87;;;23.53;;
15669;SDS011;18524;45.190;5.732;2023-12-28T01:04:18;50.97;;;29.87;;
15669;SDS011;18524;45.190;5.732;2023-12-28T01:09:08;31.07;;;22.77;;
15669;SDS011;18524;45.190;5.732;2023-12-28T01:13:59;35.27;;;24.77;;
15669;SDS011;18524;45.190;5.732;2023-12-28T01:18:49;32.43;;;22.97;;
15669;SDS011;18524;45.190;5.732;2023-12-28T01:23:40;33.60;;;23.73;;
15669;SDS011;18524;45.190;5.732;2023-12-28T01:28:30;33.70;;;23.43;;
15669;SDS011;18524;45.190;5.732;2023-12-28T01:33:20;32.93;;;23.30;;
15669;SDS011;18524;45.190;5.732;2023-12-28T01:38:11;33.73;;;23.47;;
15669;SDS011;18524;45.190;5.732;2023-12-28T01:43:01;32.43;;;22.97;;
15669;SDS011;18524;45.190;5.732;2023-12-28T01:47:55;35.23;;;23.63;;
15669;SDS011;18524;45.190;5.732;2023-12-28T01:52:47;32.97;;;22.97;;
15669;SDS011;18524;45.190;5.732;2023-12-28T01:57:39;34.27;;;24.27;;
15669;SDS011;18524;45.190;5.732;2023-12-28T02:02:30;34.83;;;24.07;;
15669;SDS011;18524;45.190;5.732;2023-12-28T02:07:21;35.20;;;24.13;;
15669;SDS011;18524;45.190;5.732;2023-12-28T02:12:13;30.80;;;23.50;;
15669;SDS011;18524;45.190;5.732;2023-12-28T02:17:06;32.30;;;22.80;;
15669;SDS011;18524;45.190;5.732;2023-12-28T02:22:02;33.07;;;22.67;;
15669;SDS011;18524;45.190;5.732;2023-12-28T02:26:53;29.57;;;21.97;;
15669;SDS011;18524;45.190;5.732;2023-12-28T02:31:51;30.17;;;21.40;;
15669;SDS011;18524;45.190;5.732;2023-12-28T02:36:49;29.10;;;21.17;;
15669;SDS011;18524;45.190;5.732;2023-12-28T02:41:41;28.97;;;21.10;;
15669;SDS011;18524;45.190;5.732;2023-12-28T02:46:33;30.47;;;21.67;;
15669;SDS011;18524;45.190;5.732;2023-12-28T02:51:24;31.27;;;21.67;;
15669;SDS011;18524;45.190;5.732;2023-12-28T02:56:14;29.93;;;21.90;;
15669;SDS011;18524;45.190;5.732;2023-12-28T03:01:05;28.70;;;21.63;;
15669;SDS011;18524;45.190;5.732;2023-12-28T03:05:55;30.43;;;22.07;;
15669;SDS011;18524;45.190;5.732;2023-12-28T03:10:45;31.77;;;21.03;;
15669;SDS011;18524;45.190;5.732;2023-12-28T03:15:36;30.23;;;21.83;;
15669;SDS011;18524;45.190;5.732;2023-12-28T03:20:26;27.43;;;20.93;;
15669;SDS011;18524;45.190;5.732;2023-12-28T03:25:16;32.57;;;21.43;;
15669;SDS011;18524;45.190;5.732;2023-12-28T03:30:07;30.17;;;20.80;;
15669;SDS011;18524;45.190;5.732;2023-12-28T03:34:58;28.87;;;21.30;;
15669;SDS011;18524;45.190;5.732;2023-12-28T03:39:48;27.90;;;20.03;;
15669;SDS011;18524;45.190;5.732;2023-12-28T03:44:39;29.53;;;20.63;;
15669;SDS011;18524;45.190;5.732;2023-12-28T03:49:29;27.97;;;19.70;;
15669;SDS011;18524;45.190;5.732;2023-12-28T03:54:19;25.10;;;18.10;;
15669;SDS011;18524;45.190;5.732;2023-12-28T03:59:10;25.77;;;18.57;;
15669;SDS011;18524;45.190;5.732;2023-12-28T04:04:00;24.67;;;18.33;;
15669;SDS011;18524;45.190;5.732;2023-12-28T04:08:51;29.30;;;20.53;;
15669;SDS011;18524;45.190;5.732;2023-12-28T04:13:41;30.60;;;21.90;;
15669;SDS011;18524;45.190;5.732;2023-12-28T04:18:32;29.83;;;21.80;;
15669;SDS011;18524;45.190;5.732;2023-12-28T04:23:23;31.97;;;23.03;;
15669;SDS011;18524;45.190;5.732;2023-12-28T04:28:13;33.10;;;22.83;;
15669;SDS011;18524;45.190;5.732;2023-12-28T04:33:03;31.87;;;22.63;;
15669;SDS011;18524;45.190;5.732;2023-12-28T04:37:54;30.83;;;22.10;;
15669;SDS011;18524;45.190;5.732;2023-12-28T04:42:45;28.90;;;20.90;;
15669;SDS011;18524;45.190;5.732;2023-12-28T04:47:35;30.83;;;22.13;;
15669;SDS011;18524;45.190;5.732;2023-12-28T04:52:26;32.57;;;23.77;;
15669;SDS011;18524;45.190;5.732;2023-12-28T04:57:16;31.83;;;22.73;;
15669;SDS011;18524;45.190;5.732;2023-12-28T05:02:07;32.10;;;23.03;;
15669;SDS011;18524;45.190;5.732;2023-12-28T05:06:57;32.27;;;22.60;;
15669;SDS011;18524;45.190;5.732;2023-12-28T05:11:48;32.63;;;22.13;;
15669;SDS011;18524;45.190;5.732;2023-12-28T05:16:38;32.00;;;22.17;;
15669;SDS011;18524;45.190;5.732;2023-12-28T05:21:28;30.33;;;21.30;;
15669;SDS011;18524;45.190;5.732;2023-12-28T05:26:19;31.77;;;22.10;;
15669;SDS011;18524;45.190;5.732;2023-12-28T05:31:09;30.53;;;22.07;;
15669;SDS011;18524;45.190;5.732;2023-12-28T05:35:59;29.70;;;21.17;;
15669;SDS011;18524;45.190;5.732;2023-12-28T05:40:50;29.27;;;21.43;;
15669;SDS011;18524;45.190;5.732;2023-12-28T05:45:40;33.07;;;22.00;;
15669;SDS011;18524;45.190;5.732;2023-12-28T05:50:31;28.73;;;20.77;;
15669;SDS011;18524;45.190;5.732;2023-12-28T05:55:21;28.73;;;20.77;;
15669;SDS011;18524;45.190;5.732;2023-12-28T06:00:12;32.20;;;21.63;;
15669;SDS011;18524;45.190;5.732;2023-12-28T06:05:03;30.07;;;21.33;;
15669;SDS011;18524;45.190;5.732;2023-12-28T06:09:54;31.63;;;22.27;;
15669;SDS011;18524;45.190;5.732;2023-12-28T06:14:44;30.83;;;21.73;;
15669;SDS011;18524;45.190;5.732;2023-12-28T06:19:35;30.00;;;21.00;;
15669;SDS011;18524;45.190;5.732;2023-12-28T06:24:25;31.57;;;21.50;;
15669;SDS011;18524;45.190;5.732;2023-12-28T06:29:15;31.47;;;22.27;;
15669;SDS011;18524;45.190;5.732;2023-12-28T06:34:06;28.67;;;20.90;;
15669;SDS011;18524;45.190;5.732;2023-12-28T06:38:57;29.67;;;21.10;;
15669;SDS011;18524;45.190;5.732;2023-12-28T06:43:47;26.47;;;19.67;;
15669;SDS011;18524;45.190;5.732;2023-12-28T06:48:38;29.73;;;21.07;;
15669;SDS011;18524;45.190;5.732;2023-12-28T06:53:30;26.50;;;19.57;;
15669;SDS011;18524;45.190;5.732;2023-12-28T06:58:20;28.87;;;20.57;;
15669;SDS011;18524;45.190;5.732;2023-12-28T07:03:11;28.27;;;19.73;;
15669;SDS011;18524;45.190;5.732;2023-12-28T07:08:01;26.93;;;19.67;;
15669;SDS011;18524;45.190;5.732;2023-12-28T07:12:51;27.97;;;20.30;;
15669;SDS011;18524;45.190;5.732;2023-12-28T07:17:42;27.30;;;19.43;;
15669;SDS011;18524;45.190;5.732;2023-12-28T07:22:32;25.87;;;18.80;;
15669;SDS011;18524;45.190;5.732;2023-12-28T07:27:22;28.17;;;19.13;;
15669;SDS011;18524;45.190;5.732;2023-12-28T07:32:13;36.00;;;26.67;;
15669;SDS011;18524;45.190;5.732;2023-12-28T07:37:04;28.43;;;20.03;;
15669;SDS011;18524;45.190;5.732;2023-12-28T07:41:55;30.40;;;20.17;;
15669;SDS011;18524;45.190;5.732;2023-12-28T07:46:45;26.00;;;18.13;;
15669;SDS011;18524;45.190;5.732;2023-12-28T07:51:35;26.03;;;18.30;;
15669;SDS011;18524;45.190;5.732;2023-12-28T07:56:26;28.97;;;18.83;;
15669;SDS011;18524;45.190;5.732;2023-12-28T08:01:16;27.63;;;18.93;;
15669;SDS011;18524;45.190;5.732;2023-12-28T08:06:07;26.60;;;19.20;;
15669;SDS011;18524;45.190;5.732;2023-12-28T08:10:57;24.10;;;18.20;;
15669;SDS011;18524;45.190;5.732;2023-12-28T08:15:47;27.07;;;19.37;;
15669;SDS011;18524;45.190;5.732;2023-12-28T08:20:38;28.70;;;19.97;;
15669;SDS011;18524;45.190;5.732;2023-12-28T08:25:28;26.07;;;19.43;;
15669;SDS011;18524;45.190;5.732;2023-12-28T08:30:18;27.83;;;19.07;;
15669;SDS011;18524;45.190;5.732;2023-12-28T08:35:09;33.00;;;21.30;;
15669;SDS011;18524;45.190;5.732;2023-12-28T08:39:59;32.00;;;22.83;;
15669;SDS011;18524;45.190;5.732;2023-12-28T08:44:50;33.60;;;25.03;;
15669;SDS011;18524;45.190;5.732;2023-12-28T08:49:40;27.67;;;20.10;;
15669;SDS011;18524;45.190;5.732;2023-12-28T08:54:31;27.70;;;19.47;;
15669;SDS011;18524;45.190;5.732;2023-12-28T08:59:21;26.33;;;20.63;;
15669;SDS011;18524;45.190;5.732;2023-12-28T09:04:12;27.30;;;20.93;;
15669;SDS011;18524;45.190;5.732;2023-12-28T09:09:04;28.17;;;21.60;;
15669;SDS011;18524;45.190;5.732;2023-12-28T09:13:54;28.43;;;19.23;;
15669;SDS011;18524;45.190;5.732;2023-12-28T09:18:44;28.57;;;19.53;;
15669;SDS011;18524;45.190;5.732;2023-12-28T09:23:35;25.40;;;18.70;;
15669;SDS011;18524;45.190;5.732;2023-12-28T09:28:26;25.50;;;18.33;;
15669;SDS011;18524;45.190;5.732;2023-12-28T09:33:16;26.23;;;19.30;;
15669;SDS011;18524;45.190;5.732;2023-12-28T09:38:06;27.10;;;19.50;;
15669;SDS011;18524;45.190;5.732;2023-12-28T09:43:03;29.27;;;20.07;;
15669;SDS011;18524;45.190;5.732;2023-12-28T09:48:04;29.97;;;20.60;;
15669;SDS011;18524;45.190;5.732;2023-12-28T09:52:56;26.27;;;19.73;;
15669;SDS011;18524;45.190;5.732;2023-12-28T09:57:47;26.43;;;19.73;;
15669;SDS011;18524;45.190;5.732;2023-12-28T10:02:38;29.93;;;20.43;;
15669;SDS011;18524;45.190;5.732;2023-12-28T10:07:31;25.60;;;20.13;;
15669;SDS011;18524;45.190;5.732;2023-12-28T10:12:21;26.13;;;21.33;;
15669;SDS011;18524;45.190;5.732;2023-12-28T10:17:12;27.50;;;22.33;;
15669;SDS011;18524;45.190;5.732;2023-12-28T10:22:02;26.27;;;21.53;;
15669;SDS011;18524;45.190;5.732;2023-12-28T10:26:52;27.60;;;21.83;;
15669;SDS011;18524;45.190;5.732;2023-12-28T10:31:43;27.43;;;20.83;;
15669;SDS011;18524;45.190;5.732;2023-12-28T10:36:33;28.87;;;21.47;;
15669;SDS011;18524;45.190;5.732;2023-12-28T10:41:26;28.30;;;21.10;;
15669;SDS011;18524;45.190;5.732;2023-12-28T10:46:26;28.87;;;20.90;;
15669;SDS011;18524;45.190;5.732;2023-12-28T10:51:18;28.53;;;22.13;;
15669;SDS011;18524;45.190;5.732;2023-12-28T10:56:28;30.00;;;21.57;;
15669;SDS011;18524;45.190;5.732;2023-12-28T11:01:26;27.60;;;20.80;;
15669;SDS011;18524;45.190;5.732;2023-12-28T11:06:21;26.03;;;20.70;;
15669;SDS011;18524;45.190;5.732;2023-12-28T11:11:12;26.20;;;21.37;;
15669;SDS011;18524;45.190;5.732;2023-12-28T11:16:04;25.93;;;20.83;;
15669;SDS011;18524;45.190;5.732;2023-12-28T11:20:55;27.40;;;21.87;;
15669;SDS011;18524;45.190;5.732;2023-12-28T11:25:46;27.70;;;21.63;;
15669;SDS011;18524;45.190;5.732;2023-12-28T11:30:36;23.93;;;20.23;;
15669;SDS011;18524;45.190;5.732;2023-12-28T11:36:01;32.07;;;25.50;;
15669;SDS011;18524;45.190;5.732;2023-12-28T11:40:45;25.77;;;22.07;;
15669;SDS011;18524;45.190;5.732;2023-12-28T11:45:41;28.10;;;22.20;;
15669;SDS011;18524;45.190;5.732;2023-12-28T11:50:39;26.73;;;22.00;;
15669;SDS011;18524;45.190;5.732;2023-12-28T11:55:29;30.33;;;23.70;;
15669;SDS011;18524;45.190;5.732;2023-12-28T12:00:20;33.43;;;25.20;;
15669;SDS011;18524;45.190;5.732;2023-12-28T12:05:14;32.47;;;24.73;;
15669;SDS011;18524;45.190;5.732;2023-12-28T12:10:05;33.13;;;23.10;;
15669;SDS011;18524;45.190;5.732;2023-12-28T12:14:56;27.70;;;23.07;;
15669;SDS011;18524;45.190;5.732;2023-12-28T12:19:46;31.47;;;24.43;;
15669;SDS011;18524;45.190;5.732;2023-12-28T12:24:39;30.00;;;21.97;;
15669;SDS011;18524;45.190;5.732;2023-12-28T12:29:33;29.43;;;23.60;;
15669;SDS011;18524;45.190;5.732;2023-12-28T12:34:23;30.07;;;23.10;;
15669;SDS011;18524;45.190;5.732;2023-12-28T12:39:14;49.23;;;31.53;;
15669;SDS011;18524;45.190;5.732;2023-12-28T12:44:04;32.03;;;25.10;;
15669;SDS011;18524;45.190;5.732;2023-12-28T12:48:58;32.83;;;26.17;;
15669;SDS011;18524;45.190;5.732;2023-12-28T12:53:55;34.23;;;27.47;;
15669;SDS011;18524;45.190;5.732;2023-12-28T12:58:47;35.10;;;27.27;;
15669;SDS011;18524;45.190;5.732;2023-12-28T13:03:37;33.40;;;26.23;;
15669;SDS011;18524;45.190;5.732;2023-12-28T13:08:28;29.50;;;25.57;;
15669;SDS011;18524;45.190;5.732;2023-12-28T13:13:19;33.20;;;26.10;;
15669;SDS011;18524;45.190;5.732;2023-12-28T13:18:09;30.17;;;24.27;;
15669;SDS011;18524;45.190;5.732;2023-12-28T13:23:00;33.57;;;25.87;;
15669;SDS011;18524;45.190;5.732;2023-12-28T13:27:50;30.00;;;24.50;;
15669;SDS011;18524;45.190;5.732;2023-12-28T13:32:41;29.87;;;23.80;;
15669;SDS011;18524;45.190;5.732;2023-12-28T13:37:32;27.07;;;22.37;;
15669;SDS011;18524;45.190;5.732;2023-12-28T13:42:22;27.83;;;22.80;;
15669;SDS011;18524;45.190;5.732;2023-12-28T13:47:13;27.83;;;22.87;;
15669;SDS011;18524;45.190;5.732;2023-12-28T13:52:03;29.00;;;21.90;;
15669;SDS011;18524;45.190;5.732;2023-12-28T13:56:54;28.87;;;22.40;;
15669;SDS011;18524;45.190;5.732;2023-12-28T14:01:47;26.47;;;21.97;;
15669;SDS011;18524;45.190;5.732;2023-12-28T14:06:38;27.57;;;21.20;;
15669;SDS011;18524;45.190;5.732;2023-12-28T14:11:28;28.57;;;21.87;;
15669;SDS011;18524;45.190;5.732;2023-12-28T14:16:18;24.90;;;21.23;;
15669;SDS011;18524;45.190;5.732;2023-12-28T14:21:09;27.13;;;22.00;;
15669;SDS011;18524;45.190;5.732;2023-12-28T14:25:59;26.13;;;20.97;;
15669;SDS011;18524;45.190;5.732;2023-12-28T14:30:50;29.63;;;25.77;;
15669;SDS011;18524;45.190;5.732;2023-12-28T14:35:40;28.03;;;22.80;;
15669;SDS011;18524;45.190;5.732;2023-12-28T14:40:31;29.00;;;20.60;;
15669;SDS011;18524;45.190;5.732;2023-12-28T14:45:22;26.20;;;20.17;;
15669;SDS011;18524;45.190;5.732;2023-12-28T14:50:13;22.80;;;18.90;;
15669;SDS011;18524;45.190;5.732;2023-12-28T14:55:03;27.13;;;21.90;;
15669;SDS011;18524;45.190;5.732;2023-12-28T14:59:54;28.33;;;20.93;;
15669;SDS011;18524;45.190;5.732;2023-12-28T15:04:44;28.93;;;22.17;;
15669;SDS011;18524;45.190;5.732;2023-12-28T15:09:34;29.73;;;23.50;;
15669;SDS011;18524;45.190;5.732;2023-12-28T15:14:25;28.23;;;22.13;;
15669;SDS011;18524;45.190;5.732;2023-12-28T15:19:16;29.07;;;24.23;;
15669;SDS011;18524;45.190;5.732;2023-12-28T15:24:06;30.53;;;24.93;;
15669;SDS011;18524;45.190;5.732;2023-12-28T15:28:57;32.10;;;26.67;;
15669;SDS011;18524;45.190;5.732;2023-12-28T15:33:47;30.37;;;25.43;;
15669;SDS011;18524;45.190;5.732;2023-12-28T15:38:37;31.53;;;25.60;;
15669;SDS011;18524;45.190;5.732;2023-12-28T15:43:28;31.07;;;25.10;;
15669;SDS011;18524;45.190;5.732;2023-12-28T15:48:18;29.37;;;23.80;;
15669;SDS011;18524;45.190;5.732;2023-12-28T15:53:09;29.87;;;25.00;;
15669;SDS011;18524;45.190;5.732;2023-12-28T15:57:59;33.50;;;25.93;;
15669;SDS011;18524;45.190;5.732;2023-12-28T16:02:49;31.47;;;25.13;;
15669;SDS011;18524;45.190;5.732;2023-12-28T16:07:41;36.20;;;27.13;;
15669;SDS011;18524;45.190;5.732;2023-12-28T16:12:31;35.53;;;26.83;;
15669;SDS011;18524;45.190;5.732;2023-12-28T16:17:22;34.43;;;27.23;;
15669;SDS011;18524;45.190;5.732;2023-12-28T16:22:12;41.20;;;29.43;;
15669;SDS011;18524;45.190;5.732;2023-12-28T16:27:03;38.10;;;27.57;;
15669;SDS011;18524;45.190;5.732;2023-12-28T16:31:53;34.93;;;26.93;;
15669;SDS011;18524;45.190;5.732;2023-12-28T16:36:46;39.10;;;28.07;;
15669;SDS011;18524;45.190;5.732;2023-12-28T16:41:37;31.97;;;26.67;;
15669;SDS011;18524;45.190;5.732;2023-12-28T16:46:28;36.60;;;27.00;;
15669;SDS011;18524;45.190;5.732;2023-12-28T16:51:19;34.83;;;26.90;;
15669;SDS011;18524;45.190;5.732;2023-12-28T16:56:09;36.53;;;27.30;;
15669;SDS011;18524;45.190;5.732;2023-12-28T17:01:00;37.90;;;28.03;;
15669;SDS011;18524;45.190;5.732;2023-12-28T17:05:50;34.73;;;28.60;;
15669;SDS011;18524;45.190;5.732;2023-12-28T17:10:41;34.70;;;27.97;;
15669;SDS011;18524;45.190;5.732;2023-12-28T17:15:31;42.30;;;29.40;;
15669;SDS011;18524;45.190;5.732;2023-12-28T17:20:25;42.57;;;32.30;;
15669;SDS011;18524;45.190;5.732;2023-12-28T17:30:15;40.17;;;29.13;;
15669;SDS011;18524;45.190;5.732;2023-12-28T17:35:06;35.53;;;27.20;;
15669;SDS011;18524;45.190;5.732;2023-12-28T17:39:57;41.53;;;29.97;;
15669;SDS011;18524;45.190;5.732;2023-12-28T17:44:47;38.20;;;30.03;;
15669;SDS011;18524;45.190;5.732;2023-12-28T17:49:45;40.17;;;30.87;;
15669;SDS011;18524;45.190;5.732;2023-12-28T17:54:38;39.17;;;30.47;;
15669;SDS011;18524;45.190;5.732;2023-12-28T17:59:28;37.47;;;28.70;;
15669;SDS011;18524;45.190;5.732;2023-12-28T18:04:18;40.90;;;30.53;;
15669;SDS011;18524;45.190;5.732;2023-12-28T18:09:09;39.77;;;32.13;;
15669;SDS011;18524;45.190;5.732;2023-12-28T18:13:59;39.57;;;30.57;;
15669;SDS011;18524;45.190;5.732;2023-12-28T18:18:50;40.53;;;30.20;;
15669;SDS011;18524;45.190;5.732;2023-12-28T18:23:40;42.40;;;32.93;;
15669;SDS011;18524;45.190;5.732;2023-12-28T18:28:30;42.57;;;32.57;;
15669;SDS011;18524;45.190;5.732;2023-12-28T18:33:21;41.03;;;31.03;;
15669;SDS011;18524;45.190;5.732;2023-12-28T18:38:12;40.43;;;30.40;;
15669;SDS011;18524;45.190;5.732;2023-12-28T18:43:03;42.67;;;32.50;;
15669;SDS011;18524;45.190;5.732;2023-12-28T18:47:53;40.87;;;31.67;;
15669;SDS011;18524;45.190;5.732;2023-12-28T18:52:44;45.50;;;33.33;;
15669;SDS011;18524;45.190;5.732;2023-12-28T18:57:34;45.10;;;34.77;;
15669;SDS011;18524;45.190;5.732;2023-12-28T19:02:24;41.30;;;33.73;;
15669;SDS011;18524;45.190;5.732;2023-12-28T19:07:17;44.67;;;34.43;;
15669;SDS011;18524;45.190;5.732;2023-12-28T19:12:07;40.13;;;32.63;;
15669;SDS011;18524;45.190;5.732;2023-12-28T19:16:59;45.47;;;34.87;;
15669;SDS011;18524;45.190;5.732;2023-12-28T19:21:50;43.17;;;33.37;;
15669;SDS011;18524;45.190;5.732;2023-12-28T19:26:41;43.57;;;33.67;;
15669;SDS011;18524;45.190;5.732;2023-12-28T19:31:31;52.43;;;37.40;;
15669;SDS011;18524;45.190;5.732;2023-12-28T19:36:22;48.87;;;37.27;;
15669;SDS011;18524;45.190;5.732;2023-12-28T19:41:12;46.63;;;36.03;;
15669;SDS011;18524;45.190;5.732;2023-12-28T19:46:03;48.77;;;35.77;;
15669;SDS011;18524;45.190;5.732;2023-12-28T19:50:54;44.87;;;34.30;;
15669;SDS011;18524;45.190;5.732;2023-12-28T19:55:44;47.57;;;36.27;;
15669;SDS011;18524;45.190;5.732;2023-12-28T20:00:35;50.93;;;38.13;;
15669;SDS011;18524;45.190;5.732;2023-12-28T20:05:25;46.80;;;35.97;;
15669;SDS011;18524;45.190;5.732;2023-12-28T20:10:16;47.73;;;36.97;;
15669;SDS011;18524;45.190;5.732;2023-12-28T20:15:06;49.47;;;36.43;;
15669;SDS011;18524;45.190;5.732;2023-12-28T20:19:59;48.30;;;36.47;;
15669;SDS011;18524;45.190;5.732;2023-12-28T20:24:50;44.63;;;34.30;;
15669;SDS011;18524;45.190;5.732;2023-12-28T20:29:41;45.07;;;34.33;;
15669;SDS011;18524;45.190;5.732;2023-12-28T20:34:31;44.60;;;32.63;;
15669;SDS011;18524;45.190;5.732;2023-12-28T20:39:23;45.67;;;34.77;;
15669;SDS011;18524;45.190;5.732;2023-12-28T20:44:13;45.00;;;33.50;;
15669;SDS011;18524;45.190;5.732;2023-12-28T20:49:04;44.23;;;33.73;;
15669;SDS011;18524;45.190;5.732;2023-12-28T20:53:54;43.40;;;34.53;;
15669;SDS011;18524;45.190;5.732;2023-12-28T20:58:44;47.80;;;35.70;;
15669;SDS011;18524;45.190;5.732;2023-12-28T21:03:37;50.40;;;36.43;;
15669;SDS011;18524;45.190;5.732;2023-12-28T21:08:27;46.77;;;35.33;;
15669;SDS011;18524;45.190;5.732;2023-12-28T21:13:19;45.23;;;35.17;;
15669;SDS011;18524;45.190;5.732;2023-12-28T21:18:09;50.47;;;37.80;;
15669;SDS011;18524;45.190;5.732;2023-12-28T21:23:00;52.90;;;38.80;;
15669;SDS011;18524;45.190;5.732;2023-12-28T21:27:50;50.17;;;38.13;;
15669;SDS011;18524;45.190;5.732;2023-12-28T21:32:40;50.07;;;38.47;;
15669;SDS011;18524;45.190;5.732;2023-12-28T21:37:31;49.97;;;39.30;;
15669;SDS011;18524;45.190;5.732;2023-12-28T21:42:21;55.07;;;41.13;;
15669;SDS011;18524;45.190;5.732;2023-12-28T21:47:12;52.07;;;39.43;;
15669;SDS011;18524;45.190;5.732;2023-12-28T21:52:04;51.57;;;38.70;;
15669;SDS011;18524;45.190;5.732;2023-12-28T21:56:55;50.03;;;38.50;;
15669;SDS011;18524;45.190;5.732;2023-12-28T22:01:45;47.83;;;37.67;;
15669;SDS011;18524;45.190;5.732;2023-12-28T22:06:35;46.43;;;36.40;;
15669;SDS011;18524;45.190;5.732;2023-12-28T22:11:26;47.80;;;36.17;;
15669;SDS011;18524;45.190;5.732;2023-12-28T22:16:16;45.97;;;35.93;;
15669;SDS011;18524;45.190;5.732;2023-12-28T22:21:07;45.33;;;36.17;;
15669;SDS011;18524;45.190;5.732;2023-12-28T22:25:57;45.37;;;35.93;;
15669;SDS011;18524;45.190;5.732;2023-12-28T22:30:47;44.50;;;35.87;;
15669;SDS011;18524;45.190;5.732;2023-12-28T22:35:38;47.20;;;34.80;;
15669;SDS011;18524;45.190;5.732;2023-12-28T22:40:29;45.00;;;34.83;;
15669;SDS011;18524;45.190;5.732;2023-12-28T22:45:20;45.27;;;34.50;;
15669;SDS011;18524;45.190;5.732;2023-12-28T22:50:10;41.83;;;33.27;;
15669;SDS011;18524;45.190;5.732;2023-12-28T22:55:01;43.30;;;33.17;;
15669;SDS011;18524;45.190;5.732;2023-12-28T22:59:51;44.60;;;34.53;;
15669;SDS011;18524;45.190;5.732;2023-12-28T23:04:42;44.67;;;33.80;;
15669;SDS011;18524;45.190;5.732;2023-12-28T23:09:33;44.33;;;34.13;;
15669;SDS011;18524;45.190;5.732;2023-12-28T23:14:23;45.63;;;34.73;;
15669;SDS011;18524;45.190;5.732;2023-12-28T23:19:14;52.07;;;36.70;;
15669;SDS011;18524;45.190;5.732;2023-12-28T23:24:04;50.70;;;35.93;;
15669;SDS011;18524;45.190;5.732;2023-12-28T23:28:55;43.63;;;33.27;;
15669;SDS011;18524;45.190;5.732;2023-12-28T23:33:45;42.17;;;33.00;;
15669;SDS011;18524;45.190;5.732;2023-12-28T23:38:35;91.67;;;46.83;;
15669;SDS011;18524;45.190;5.732;2023-12-28T23:43:26;47.47;;;34.27;;
15669;SDS011;18524;45.190;5.732;2023-12-28T23:48:16;44.27;;;34.13;;
15669;SDS011;18524;45.190;5.732;2023-12-28T23:53:06;43.67;;;33.30;;
15669;SDS011;18524;45.190;5.732;2023-12-28T23:57:57;46.13;;;36.23;;
